메인 페이지
METAR-TAF:

METAR-TAF

공항 :

엔테베 국제공항

엔테베, 우간다

위도: 00-03N, 경도: 032-27E, 고도: 1155m

현재 날씨관측

예보는 4 시간 6분 전, 17:30시(UTC)에 발표되었습니다.
7kt
온도 23°C
습도 78%
기압 1018 hPa
시정 10km 이상
고도 2500ft 상공 구름 조금
고도 2700ft 상공 구름 조금, 적란운.

METAR: HUEN 131730Z 18007KT 9999 FEW025 FEW027CB 23/19 Q1018 NOSIG

시각: 00:36 (21:36 UTC)

예보

예보는 4 시간 36분 전, 17:00시(UTC)에 발표되었습니다.
예보 대상 시간: 13일 18시부터 14일 24시까지 (UTC)
남남동8kt
시정 10km 이상
고도 2400ft 상공 구름 조금
고도 2600ft 상공 구름 조금, 적란운.
전환 중
13일 23시부터 14일 03시까지 (UTC)
10kt
시정: 9000m
고도 1900ft 상공 구름 보통
고도 2000ft 상공 구름 조금, 적란운.
고도 10000ft 상공 구름 많음
뇌우, 약한비,

TAF: HUEN 131700Z 1318/1424 16008KT 9999 FEW024 FEW026CB BECMG 1323/1403 27010KT 9000 -TSRA SCT019 FEW020CB BKN100

4,000개 이상의 공항 관측 자료 및 예보 (METAR 및 TAF 보고).

지도상에서 검색 가능한 기상관측소가 노란 점과 빨간 점으로 표시되어 있습니다.

기상관측소 명을 보려면 표시 위로 마우스를 이동하세요.

날씨 관측과 예보를 보려면 클릭하세요.

지도 변경 : 확대하려면 엑스 표시가 있는 녹색 버튼, 축소하려면 빼기 표시가 있는 녹색 버튼, 다음 페이지의 지도를 보려면 녹색 화살표를 클릭하세요.


METAR-TAF: